createdAt,value
2019-05-28T00:00:11.318Z,8.33
2019-05-28T00:02:41.166Z,6.70
2019-05-28T00:05:10.832Z,9.33
2019-05-28T00:07:40.483Z,8.50
2019-05-28T00:10:10.162Z,8.23
2019-05-28T00:12:39.544Z,10.72
2019-05-28T00:15:09.205Z,8.60
2019-05-28T00:17:38.807Z,7.62
2019-05-28T00:20:09.001Z,7.22
2019-05-28T00:22:38.318Z,7.62
2019-05-28T00:25:08.362Z,8.90
2019-05-28T00:27:38.069Z,12.80
2019-05-28T00:30:19.087Z,10.20
2019-05-28T00:32:39.264Z,9.53
2019-05-28T00:35:09.004Z,11.05
2019-05-28T00:37:38.362Z,15.30
2019-05-28T00:40:08.034Z,13.05
2019-05-28T00:42:37.511Z,12.25
2019-05-28T00:45:09.201Z,7.97
2019-05-28T00:47:38.534Z,8.73
2019-05-28T00:50:09.979Z,11.45
2019-05-28T00:52:39.479Z,11.28
2019-05-28T00:55:09.365Z,10.98
2019-05-28T00:57:44.734Z,7.62
2019-05-28T01:00:14.810Z,12.28
2019-05-28T01:02:44.207Z,10.30
2019-05-28T01:05:14.051Z,8.23
2019-05-28T01:07:43.376Z,5.78
2019-05-28T01:10:12.778Z,9.90
2019-05-28T01:12:42.113Z,10.70
2019-05-28T01:15:11.749Z,11.20
2019-05-28T01:17:41.404Z,11.90
2019-05-28T01:20:11.619Z,11.48
2019-05-28T01:22:41.225Z,8.80
2019-05-28T01:25:10.625Z,9.20
2019-05-28T01:27:40.920Z,8.50
2019-05-28T01:30:11.561Z,10.40
2019-05-28T01:32:40.890Z,8.18
2019-05-28T01:35:10.387Z,10.80
2019-05-28T01:37:40.015Z,7.95
2019-05-28T01:40:10.457Z,10.98
2019-05-28T01:42:39.782Z,8.65
2019-05-28T01:45:09.549Z,7.75
2019-05-28T01:47:38.896Z,4.92
2019-05-28T01:50:08.577Z,12.05
2019-05-28T01:52:38.479Z,9.75
2019-05-28T01:55:08.904Z,6.42
2019-05-28T01:57:38.343Z,9.65
2019-05-28T02:00:08.022Z,7.47
2019-05-28T02:02:37.594Z,7.75
2019-05-28T02:05:08.087Z,8.35
2019-05-28T02:07:37.406Z,6.45
2019-05-28T02:10:07.880Z,5.45
2019-05-28T02:12:37.286Z,7.62
2019-05-28T02:15:08.560Z,8.48
2019-05-28T02:17:37.956Z,8.13
2019-05-28T02:20:09.315Z,6.92
2019-05-28T02:22:39.672Z,8.83
2019-05-28T02:25:10.279Z,8.55
2019-05-28T02:27:39.646Z,9.93
2019-05-28T02:30:11.283Z,10.68
2019-05-28T02:32:41.813Z,10.03
2019-05-28T02:35:11.892Z,7.92
2019-05-28T02:37:41.237Z,12.70
2019-05-28T02:40:11.001Z,8.03
2019-05-28T02:42:40.341Z,9.95
2019-05-28T02:45:10.900Z,8.73
2019-05-28T02:47:40.310Z,11.83
2019-05-28T02:50:11.088Z,8.63
2019-05-28T02:52:42.094Z,6.45
2019-05-28T02:55:12.360Z,7.25
2019-05-28T02:57:43.057Z,9.18
2019-05-28T03:00:17.147Z,13.72
2019-05-28T03:02:49.524Z,6.55
2019-05-28T03:05:19.449Z,8.70
2019-05-28T03:07:50.956Z,6.85
2019-05-28T03:11:00.068Z,9.00
2019-05-28T03:13:06.288Z,8.10
2019-05-28T03:15:38.704Z,8.33
2019-05-28T03:18:11.132Z,12.35
2019-05-28T03:20:42.780Z,12.63
2019-05-28T03:23:13.263Z,9.10
2019-05-28T03:25:42.566Z,10.80
2019-05-28T03:28:11.960Z,9.95
2019-05-28T03:30:41.358Z,8.65
2019-05-28T03:33:10.686Z,9.63
2019-05-28T03:35:42.298Z,10.93
2019-05-28T03:38:12.574Z,7.95
2019-05-28T03:40:47.004Z,12.88
2019-05-28T03:43:16.385Z,9.13
2019-05-28T03:45:46.264Z,9.85
2019-05-28T03:48:16.561Z,13.48
2019-05-28T03:50:45.896Z,12.20
2019-05-28T03:53:15.234Z,17.20
2019-05-28T03:55:45.702Z,15.60
2019-05-28T03:58:15.338Z,20.82
2019-05-28T04:00:44.706Z,18.62
2019-05-28T04:03:14.037Z,15.23
2019-05-28T04:05:43.644Z,14.00
2019-05-28T04:08:13.150Z,14.20
2019-05-28T04:10:42.512Z,17.27
2019-05-28T04:13:12.099Z,12.68
2019-05-28T04:15:41.438Z,10.18
2019-05-28T04:18:10.809Z,10.93
2019-05-28T04:20:40.185Z,12.03
2019-05-28T04:23:15.087Z,14.38
2019-05-28T04:25:46.836Z,11.28
2019-05-28T04:28:16.471Z,10.50
2019-05-28T04:30:45.815Z,15.98
2019-05-28T04:33:15.214Z,9.45
2019-05-28T04:35:44.479Z,17.98
2019-05-28T04:38:13.833Z,8.28
2019-05-28T04:40:43.166Z,10.50
2019-05-28T04:43:13.959Z,12.95
2019-05-28T04:45:43.304Z,11.85
2019-05-28T04:48:12.923Z,11.35
2019-05-28T04:50:42.255Z,13.08
2019-05-28T04:53:11.610Z,11.18
2019-05-28T04:55:41.918Z,10.08
2019-05-28T04:58:11.244Z,11.53
2019-05-28T05:00:40.868Z,12.65
2019-05-28T05:03:10.199Z,11.73
2019-05-28T05:05:39.547Z,10.82
2019-05-28T05:08:08.876Z,10.35
2019-05-28T05:10:38.219Z,14.05
2019-05-28T05:13:07.550Z,8.90
2019-05-28T05:15:37.287Z,10.35
2019-05-28T05:18:07.619Z,14.90
2019-05-28T05:20:37.220Z,9.93
2019-05-28T05:23:06.558Z,13.20
2019-05-28T05:25:35.901Z,13.43
2019-05-28T05:28:05.243Z,20.85
2019-05-28T05:30:34.580Z,32.03
2019-05-28T05:33:19.129Z,41.92
2019-05-28T05:35:34.960Z,46.30
2019-05-28T05:38:04.311Z,44.93
2019-05-28T05:40:33.658Z,46.83
2019-05-28T05:43:03.007Z,53.17
2019-05-28T05:45:32.346Z,48.10
2019-05-28T05:48:01.685Z,47.80
2019-05-28T05:50:31.038Z,35.60
2019-05-28T05:53:00.366Z,33.05
2019-05-28T05:55:30.030Z,32.55
2019-05-28T05:57:59.358Z,28.38
2019-05-28T06:00:28.703Z,25.35
2019-05-28T06:02:58.044Z,28.70
2019-05-28T06:05:27.462Z,29.27
2019-05-28T06:07:56.825Z,27.95
2019-05-28T06:10:26.160Z,22.77
2019-05-28T06:12:55.488Z,16.00
2019-05-28T06:15:24.839Z,12.88
2019-05-28T06:17:54.164Z,15.38
2019-05-28T06:20:23.573Z,14.60
2019-05-28T06:22:52.904Z,10.30
2019-05-28T06:25:22.310Z,16.10
2019-05-28T06:43:08.128Z,14.85
2019-05-28T06:45:37.718Z,12.50
2019-05-28T06:48:07.051Z,13.28
2019-05-28T06:50:36.386Z,12.65
2019-05-28T06:53:05.723Z,16.20
2019-05-28T06:55:35.074Z,17.65
2019-05-28T06:58:04.391Z,14.43
2019-05-28T07:00:34.032Z,11.43
2019-05-28T07:03:03.662Z,21.20
2019-05-28T07:05:33.574Z,13.20
2019-05-28T07:08:03.011Z,21.42
2019-05-28T07:10:33.290Z,18.77
2019-05-28T07:13:02.693Z,17.20
2019-05-28T07:15:32.999Z,18.40
2019-05-28T07:18:02.359Z,21.48
2019-05-28T07:20:31.709Z,20.20
2019-05-28T07:23:01.042Z,16.55
2019-05-28T07:25:30.374Z,21.60
2019-05-28T07:28:10.243Z,17.42
2019-05-28T07:30:30.743Z,20.12
2019-05-28T07:33:00.485Z,18.02
2019-05-28T07:35:44.568Z,20.75
2019-05-28T07:38:01.070Z,18.75
2019-05-28T07:40:32.267Z,19.15
2019-05-28T07:43:01.739Z,19.25
2019-05-28T07:45:31.076Z,17.15
2019-05-28T07:48:00.498Z,17.07
2019-05-28T07:50:30.063Z,20.12
2019-05-28T07:52:59.411Z,23.65
2019-05-28T07:55:28.751Z,14.50
2019-05-28T07:57:58.113Z,18.02
2019-05-28T08:00:38.585Z,18.62
2019-05-28T08:03:08.569Z,17.32
2019-05-28T08:05:37.976Z,12.90
2019-05-28T08:08:08.876Z,15.70
2019-05-28T08:10:38.285Z,16.17
2019-05-28T08:13:07.677Z,17.45
2019-05-28T08:15:37.242Z,17.65
2019-05-28T08:18:06.579Z,17.98
2019-05-28T08:20:35.910Z,17.50
2019-05-28T08:23:05.251Z,15.83
2019-05-28T08:25:46.891Z,18.92
2019-05-28T08:28:19.403Z,16.80
2019-05-28T08:30:37.632Z,17.50
2019-05-28T08:33:07.198Z,17.15
2019-05-28T08:35:36.528Z,16.48
2019-05-28T08:38:06.164Z,17.77
2019-05-28T08:40:35.495Z,20.05
2019-05-28T08:43:04.842Z,17.07
2019-05-28T08:45:34.196Z,15.83
2019-05-28T08:48:03.535Z,13.72
2019-05-28T08:50:34.978Z,14.25
2019-05-28T08:53:03.935Z,15.30
2019-05-28T08:55:33.415Z,14.00
2019-05-28T08:58:02.946Z,11.18
2019-05-28T09:00:38.292Z,9.75
2019-05-28T09:03:07.752Z,9.25
2019-05-28T09:05:37.191Z,11.65
2019-05-28T09:08:06.618Z,10.05
2019-05-28T09:10:36.046Z,10.20
2019-05-28T09:13:05.788Z,9.95
2019-05-28T09:15:35.451Z,9.50
2019-05-28T09:18:05.260Z,10.28
2019-05-28T09:20:34.625Z,9.70
2019-05-28T09:23:03.969Z,8.73
2019-05-28T09:25:33.552Z,9.80
2019-05-28T09:28:02.956Z,10.38
2019-05-28T09:30:32.296Z,11.30
2019-05-28T09:33:01.647Z,10.15
2019-05-28T09:35:44.129Z,10.72
2019-05-28T09:38:02.367Z,10.28
2019-05-28T09:40:48.580Z,12.37
2019-05-28T09:43:02.890Z,11.20
2019-05-28T09:45:32.222Z,10.53
2019-05-28T09:48:01.575Z,12.65
2019-05-28T09:50:31.450Z,13.15
2019-05-28T09:53:00.733Z,9.28
2019-05-28T09:55:30.077Z,10.90
2019-05-28T09:57:59.400Z,8.58
2019-05-28T10:00:29.333Z,8.63
2019-05-28T10:02:58.659Z,9.13
2019-05-28T10:05:27.996Z,8.18
2019-05-28T10:07:57.546Z,13.13
2019-05-28T10:10:26.948Z,12.63
2019-05-28T10:12:56.233Z,11.70
2019-05-28T10:15:26.046Z,12.98
2019-05-28T10:17:55.377Z,13.30
2019-05-28T10:20:25.167Z,19.05
2019-05-28T10:22:54.567Z,14.38
2019-05-28T10:25:24.134Z,17.27
2019-05-28T10:28:00.860Z,18.42
2019-05-28T10:30:25.248Z,16.00
2019-05-28T10:32:55.014Z,15.18
2019-05-28T10:35:24.884Z,11.50
2019-05-28T10:37:54.280Z,15.45
2019-05-28T10:40:23.847Z,14.10
2019-05-28T10:42:53.242Z,13.08
2019-05-28T10:45:22.730Z,16.17
2019-05-28T10:47:53.244Z,17.77
2019-05-28T10:50:23.368Z,14.43
2019-05-28T10:52:52.704Z,17.52
2019-05-28T10:55:22.045Z,15.10
2019-05-28T10:57:51.373Z,14.53
2019-05-28T11:00:21.564Z,14.00
2019-05-28T11:02:51.270Z,17.55
2019-05-28T11:05:21.853Z,13.55
2019-05-28T11:07:51.499Z,11.10
2019-05-28T11:10:24.385Z,14.55
2019-05-28T11:12:53.402Z,16.40
2019-05-28T11:15:25.697Z,16.77
2019-05-28T11:17:55.036Z,18.45
2019-05-28T11:20:25.013Z,18.98
2019-05-28T11:22:54.642Z,16.62
2019-05-28T11:25:24.280Z,16.30
2019-05-28T11:27:53.611Z,14.30
2019-05-28T11:30:23.599Z,17.23
2019-05-28T11:32:53.291Z,15.63
2019-05-28T11:35:22.886Z,14.55
2019-05-28T11:37:52.204Z,18.57
2019-05-28T11:40:22.107Z,13.85
2019-05-28T11:42:51.459Z,11.78
2019-05-28T11:45:21.673Z,10.95
2019-05-28T11:47:51.509Z,12.35
2019-05-28T11:50:20.987Z,11.88
2019-05-28T11:52:50.309Z,7.60
2019-05-28T11:55:20.316Z,6.62
2019-05-28T11:57:49.667Z,8.90
2019-05-28T12:00:19.625Z,6.67
2019-05-28T12:02:49.308Z,6.90
2019-05-28T12:05:20.262Z,7.87
2019-05-28T12:07:51.783Z,9.20
2019-05-28T12:10:22.490Z,6.65
2019-05-28T12:12:51.832Z,8.33
2019-05-28T12:15:21.830Z,10.40
2019-05-28T12:17:51.200Z,10.15
2019-05-28T12:20:21.499Z,11.53
2019-05-28T12:23:08.976Z,6.17
2019-05-28T12:25:22.445Z,3.30
2019-05-28T12:27:52.049Z,3.27
2019-05-28T12:30:22.007Z,3.02
2019-05-28T12:32:51.335Z,3.33
2019-05-28T12:35:29.401Z,6.33
2019-05-28T12:37:53.040Z,2.08
2019-05-28T12:40:23.249Z,2.95
2019-05-28T12:42:52.579Z,4.20
2019-05-28T12:45:34.955Z,3.17
2019-05-28T12:48:09.565Z,3.77
2019-05-28T12:50:24.793Z,4.20
2019-05-28T12:52:54.159Z,3.05
2019-05-28T12:55:23.746Z,6.65
2019-05-28T12:57:53.088Z,4.05
2019-05-28T13:00:24.355Z,3.37
2019-05-28T13:02:53.684Z,3.50
2019-05-28T13:05:26.503Z,3.62
2019-05-28T13:08:08.466Z,4.20
2019-05-28T13:10:26.868Z,3.10
2019-05-28T13:12:56.203Z,1.52
2019-05-28T13:15:25.717Z,2.10
2019-05-28T13:17:55.070Z,2.83
2019-05-28T13:20:24.465Z,3.58
2019-05-28T13:22:53.802Z,3.08
2019-05-28T13:25:23.126Z,3.45
2019-05-28T13:27:52.535Z,5.53
2019-05-28T13:30:22.200Z,3.95
2019-05-28T13:32:51.801Z,4.50
2019-05-28T13:35:21.360Z,3.02
2019-05-28T13:37:50.809Z,8.38
2019-05-28T13:40:21.892Z,8.55
2019-05-28T13:42:51.829Z,6.70
2019-05-28T13:45:22.362Z,5.35
2019-05-28T13:47:51.701Z,4.65
2019-05-28T13:50:21.663Z,4.58
2019-05-28T13:52:51.382Z,5.25
2019-05-28T13:55:20.772Z,5.25
2019-05-28T13:57:50.096Z,5.58
2019-05-28T14:00:22.003Z,5.65
2019-05-28T14:02:51.336Z,7.47
2019-05-28T14:05:20.840Z,6.28
2019-05-28T14:07:50.509Z,6.60
2019-05-28T14:10:20.146Z,9.10
2019-05-28T14:12:49.533Z,7.37
2019-05-28T14:15:19.727Z,7.33
2019-05-28T14:17:49.090Z,7.22
2019-05-28T14:20:20.901Z,7.72
2019-05-28T14:22:50.255Z,7.03
2019-05-28T14:25:19.669Z,11.15
2019-05-28T14:27:48.995Z,8.30
2019-05-28T14:30:20.053Z,6.80
2019-05-28T14:32:49.620Z,7.37
2019-05-28T14:35:19.025Z,6.35
2019-05-28T14:37:48.636Z,5.30
2019-05-28T14:40:18.205Z,5.12
2019-05-28T14:42:47.533Z,5.12
2019-05-28T14:45:17.638Z,4.15
2019-05-28T14:47:46.999Z,4.42
2019-05-28T14:50:17.044Z,5.03
2019-05-28T14:52:46.375Z,4.58
2019-05-28T14:55:17.457Z,6.05
2019-05-28T14:57:46.769Z,6.10
2019-05-28T15:00:18.618Z,5.85
2019-05-28T15:02:47.970Z,6.42
2019-05-28T15:05:17.753Z,4.67
2019-05-28T15:07:47.089Z,4.55
2019-05-28T15:10:17.471Z,7.35
2019-05-28T15:12:46.816Z,6.58
2019-05-28T15:15:34.014Z,7.72
2019-05-28T15:17:48.044Z,7.45
2019-05-28T15:20:19.188Z,6.80
2019-05-28T15:22:48.590Z,8.55
2019-05-28T15:25:18.271Z,7.35
2019-05-28T15:27:47.600Z,7.95
2019-05-28T15:30:18.802Z,8.45
2019-05-28T15:32:48.204Z,7.30
2019-05-28T15:35:17.669Z,9.23
2019-05-28T15:37:47.233Z,6.90
2019-05-28T15:40:16.912Z,7.55
2019-05-28T15:42:46.245Z,5.58
2019-05-28T15:45:15.934Z,8.40
2019-05-28T15:47:45.371Z,6.85
2019-05-28T15:50:15.203Z,6.47
2019-05-28T15:52:44.530Z,5.97
2019-05-28T15:55:14.530Z,7.78
2019-05-28T15:57:44.819Z,8.95
2019-05-28T16:00:23.393Z,4.00
2019-05-28T16:02:53.262Z,3.90
2019-05-28T16:05:22.596Z,3.92
2019-05-28T16:07:52.054Z,3.45
2019-05-28T16:10:21.858Z,4.40
2019-05-28T16:12:51.240Z,4.03
2019-05-28T16:15:20.939Z,3.62
2019-05-28T16:17:50.264Z,4.95
2019-05-28T16:20:21.076Z,3.85
2019-05-28T16:22:50.459Z,5.00
2019-05-28T16:25:20.087Z,4.17
2019-05-28T16:27:49.426Z,4.72
2019-05-28T16:30:19.105Z,5.20
2019-05-28T16:32:48.472Z,3.60
2019-05-28T16:35:20.048Z,4.90
2019-05-28T16:37:50.385Z,4.15
2019-05-28T16:40:20.166Z,5.35
2019-05-28T16:42:49.585Z,5.50
2019-05-28T16:45:19.630Z,5.62
2019-05-28T16:47:48.975Z,5.92
2019-05-28T16:50:18.904Z,6.70
2019-05-28T16:52:48.483Z,5.75
2019-05-28T16:55:18.061Z,7.45
2019-05-28T16:57:47.461Z,5.70
2019-05-28T17:00:17.330Z,5.45
2019-05-28T17:02:46.674Z,16.20
2019-05-28T17:05:17.438Z,8.90
2019-05-28T17:07:46.775Z,15.53
2019-05-28T17:10:31.769Z,9.45
2019-05-28T17:12:47.498Z,13.18
2019-05-28T17:15:17.383Z,7.55
2019-05-28T17:17:47.124Z,8.65
2019-05-28T17:20:17.994Z,7.83
2019-05-28T17:22:47.598Z,11.12
2019-05-28T17:25:18.031Z,9.28
2019-05-28T17:27:47.676Z,11.03
2019-05-28T17:30:23.594Z,11.35
2019-05-28T17:32:49.682Z,7.15
2019-05-28T17:35:19.222Z,9.03
2019-05-28T17:37:49.653Z,10.43
2019-05-28T17:40:22.477Z,7.12
2019-05-28T17:42:50.263Z,8.90
2019-05-28T17:45:20.066Z,6.78
2019-05-28T17:47:49.416Z,10.68
2019-05-28T17:50:19.871Z,5.83
2019-05-28T17:52:51.601Z,12.23
2019-05-28T17:55:20.238Z,7.62
2019-05-28T17:57:49.632Z,8.45
2019-05-28T18:00:18.978Z,8.13
2019-05-28T18:02:48.777Z,6.70
2019-05-28T18:05:18.618Z,5.35
2019-05-28T18:07:48.116Z,5.90
2019-05-28T18:10:17.933Z,6.85
2019-05-28T18:12:47.345Z,5.87
2019-05-28T18:15:17.007Z,6.85
2019-05-28T18:17:46.385Z,5.40
2019-05-28T18:20:16.251Z,7.17
2019-05-28T18:22:45.613Z,7.55
2019-05-28T18:25:15.204Z,7.05
2019-05-28T18:27:45.506Z,7.80
2019-05-28T18:30:16.102Z,6.83
2019-05-28T18:32:45.426Z,7.58
2019-05-28T18:35:14.990Z,7.33
2019-05-28T18:37:44.736Z,8.00
2019-05-28T18:40:14.420Z,8.55
2019-05-28T18:42:43.989Z,7.50
2019-05-28T18:45:13.758Z,7.97
2019-05-28T18:47:43.092Z,7.80
2019-05-28T18:50:15.040Z,8.73
2019-05-28T18:52:44.360Z,7.58
2019-05-28T18:55:13.829Z,7.35
2019-05-28T18:57:43.226Z,7.85
2019-05-28T19:00:13.590Z,5.75
2019-05-28T19:02:43.184Z,3.77
2019-05-28T19:05:13.069Z,6.00
2019-05-28T19:07:42.665Z,5.20
2019-05-28T19:10:12.068Z,4.08
2019-05-28T19:12:41.393Z,7.78
2019-05-28T19:15:11.014Z,8.35
2019-05-28T19:17:40.398Z,4.05
2019-05-28T19:20:10.190Z,4.08
2019-05-28T19:22:39.756Z,6.15
2019-05-28T19:25:10.594Z,8.08
2019-05-28T19:27:40.147Z,8.85
2019-05-28T19:30:10.481Z,8.95
2019-05-28T19:32:40.155Z,5.72
2019-05-28T19:35:10.814Z,6.55
2019-05-28T19:37:40.990Z,8.63
2019-05-28T19:40:11.355Z,5.05
2019-05-28T19:42:40.710Z,7.22
2019-05-28T19:45:10.193Z,6.83
2019-05-28T19:47:39.765Z,9.35
2019-05-28T19:50:09.544Z,7.65
2019-05-28T19:52:39.127Z,8.00
2019-05-28T19:55:08.779Z,10.43
2019-05-28T19:57:38.341Z,6.53
2019-05-28T20:00:08.892Z,5.53
2019-05-28T20:02:39.657Z,6.55
2019-05-28T20:05:09.417Z,8.53
2019-05-28T20:07:38.917Z,7.72
2019-05-28T20:10:08.856Z,9.00
2019-05-28T20:12:38.270Z,13.35
2019-05-28T20:15:12.551Z,9.75
2019-05-28T20:17:41.876Z,10.32
2019-05-28T20:20:11.738Z,7.37
2019-05-28T20:22:41.076Z,9.93
2019-05-28T20:25:10.924Z,10.48
2019-05-28T20:27:40.294Z,9.10
2019-05-28T20:30:11.453Z,8.98
2019-05-28T20:32:41.065Z,10.68
2019-05-28T20:35:11.171Z,6.30
2019-05-28T20:37:40.713Z,5.37
2019-05-28T20:40:10.481Z,8.15
2019-05-28T20:42:39.812Z,9.30
2019-05-28T20:45:11.921Z,7.40
2019-05-28T20:47:40.811Z,12.37
2019-05-28T20:50:11.945Z,6.45
2019-05-28T20:52:42.283Z,6.30
2019-05-28T20:55:12.265Z,13.65
2019-05-28T20:57:41.602Z,8.55
2019-05-28T21:00:12.077Z,7.45
2019-05-28T21:02:41.412Z,10.32
2019-05-28T21:05:12.036Z,10.28
2019-05-28T21:07:41.375Z,7.95
2019-05-28T21:10:11.033Z,7.17
2019-05-28T21:12:44.421Z,7.33
2019-05-28T21:15:15.844Z,7.60
2019-05-28T21:17:43.575Z,6.03
2019-05-28T21:20:13.737Z,7.80
2019-05-28T21:22:43.135Z,6.08
2019-05-28T21:25:13.202Z,5.22
2019-05-28T21:27:42.524Z,8.30
2019-05-28T21:30:12.202Z,10.20
2019-05-28T21:32:41.853Z,7.65
2019-05-28T21:35:11.413Z,4.95
2019-05-28T21:37:40.762Z,6.15
2019-05-28T21:40:10.524Z,5.65
2019-05-28T21:42:39.860Z,7.20
2019-05-28T21:45:09.853Z,5.12
2019-05-28T21:47:39.179Z,8.03
2019-05-28T21:50:10.146Z,6.45
2019-05-28T21:52:39.704Z,6.87
2019-05-28T21:55:09.471Z,8.23
2019-05-28T21:57:38.796Z,8.35
2019-05-28T22:00:17.965Z,10.60
2019-05-28T22:02:48.915Z,8.18
2019-05-28T22:05:18.415Z,7.47
2019-05-28T22:07:48.099Z,9.13
2019-05-28T22:10:17.494Z,8.85
2019-05-28T22:12:47.790Z,7.10
2019-05-28T22:15:17.497Z,9.25
2019-05-28T22:17:47.067Z,10.20
2019-05-28T22:20:16.641Z,6.72
2019-05-28T22:22:46.943Z,6.62
2019-05-28T22:25:16.417Z,9.48
2019-05-28T22:27:46.720Z,6.67
2019-05-28T22:30:16.801Z,10.30
2019-05-28T22:32:46.193Z,7.87
2019-05-28T22:35:15.799Z,7.22
2019-05-28T22:37:45.141Z,6.20
2019-05-28T22:40:15.417Z,7.28
2019-05-28T22:42:44.740Z,7.37
2019-05-28T22:45:14.796Z,5.42
2019-05-28T22:47:44.134Z,7.08
2019-05-28T22:50:22.571Z,6.15
2019-05-28T22:52:45.035Z,3.67
2019-05-28T22:55:14.935Z,5.53
2019-05-28T22:57:44.273Z,6.72
2019-05-28T23:00:14.960Z,10.28
2019-05-28T23:02:44.261Z,7.67
2019-05-28T23:05:14.426Z,4.60
2019-05-28T23:07:43.761Z,5.80
2019-05-28T23:10:13.162Z,6.97
2019-05-28T23:12:42.730Z,6.58
2019-05-28T23:15:12.438Z,9.73
2019-05-28T23:17:41.769Z,4.25
2019-05-28T23:20:12.199Z,6.35
2019-05-28T23:22:41.524Z,4.95
2019-05-28T23:25:11.819Z,11.33
2019-05-28T23:27:41.102Z,4.12
2019-05-28T23:30:23.478Z,5.78
2019-05-28T23:32:41.641Z,4.85
2019-05-28T23:35:12.713Z,8.35
2019-05-28T23:37:42.129Z,6.35
2019-05-28T23:40:11.892Z,5.25
2019-05-28T23:42:41.223Z,11.55
2019-05-28T23:45:11.813Z,6.53
2019-05-28T23:47:41.194Z,8.28
2019-05-28T23:50:14.812Z,6.97
2019-05-28T23:52:42.166Z,7.42
2019-05-28T23:55:11.896Z,8.20
2019-05-28T23:57:41.229Z,10.28
